createdAt,value
2023-03-26T00:03:02.324Z,0.50
2023-03-26T00:06:12.931Z,0.40
2023-03-26T00:09:17.008Z,0.50
2023-03-26T00:12:20.137Z,0.60
2023-03-26T00:15:22.925Z,0.50
2023-03-26T00:18:30.892Z,0.43
2023-03-26T00:21:34.218Z,0.90
2023-03-26T00:24:37.764Z,0.80
2023-03-26T00:27:41.993Z,0.93
2023-03-26T00:30:45.127Z,1.02
2023-03-26T00:33:47.980Z,0.83
2023-03-26T00:36:54.930Z,0.90
2023-03-26T00:40:09.882Z,0.88
2023-03-26T00:43:19.455Z,0.90
2023-03-26T00:46:23.581Z,0.90
2023-03-26T00:49:27.003Z,0.70
2023-03-26T00:52:29.937Z,0.73
2023-03-26T00:55:33.009Z,1.08
2023-03-26T00:58:35.986Z,0.90
2023-03-26T01:01:40.012Z,0.80
2023-03-26T01:04:55.754Z,0.70
2023-03-26T01:08:16.606Z,1.17
2023-03-26T01:11:26.208Z,1.00
2023-03-26T01:14:29.958Z,0.80
2023-03-26T01:17:34.508Z,1.40
2023-03-26T01:20:47.107Z,1.17
2023-03-26T01:24:00.402Z,0.90
2023-03-26T01:27:21.094Z,0.90
2023-03-26T01:30:27.890Z,0.70
2023-03-26T01:33:44.095Z,0.73
2023-03-26T01:37:13.530Z,0.40
2023-03-26T01:40:43.152Z,0.40
2023-03-26T01:44:00.805Z,0.80
2023-03-26T01:47:06.190Z,0.75
2023-03-26T01:50:09.796Z,0.62
2023-03-26T01:53:14.615Z,0.83
2023-03-26T01:56:39.259Z,1.00
2023-03-26T02:00:07.212Z,1.08
2023-03-26T02:03:45.268Z,0.70
2023-03-26T02:07:05.914Z,0.70
2023-03-26T02:10:16.646Z,1.10
2023-03-26T02:13:21.169Z,0.90
2023-03-26T02:16:24.029Z,0.90
2023-03-26T02:19:27.246Z,0.90
2023-03-26T02:22:30.136Z,0.93
2023-03-26T02:25:35.467Z,0.80
2023-03-26T02:28:38.602Z,0.77
2023-03-26T02:31:41.952Z,1.08
2023-03-26T02:34:44.846Z,0.70
2023-03-26T02:37:51.121Z,1.10
2023-03-26T02:40:55.530Z,0.80
2023-03-26T02:44:00.474Z,0.68
2023-03-26T02:47:05.068Z,0.90
2023-03-26T02:50:12.313Z,0.62
2023-03-26T02:53:19.596Z,0.60
2023-03-26T02:56:23.832Z,0.80
2023-03-26T02:59:28.581Z,0.70
2023-03-26T03:02:32.640Z,0.57
2023-03-26T03:05:38.309Z,0.68
2023-03-26T03:08:41.927Z,0.57
2023-03-26T03:11:45.955Z,0.60
2023-03-26T03:14:49.219Z,1.17
2023-03-26T03:17:52.076Z,0.60
2023-03-26T03:20:55.352Z,0.98
2023-03-26T03:24:00.254Z,0.50
2023-03-26T03:27:04.876Z,0.40
2023-03-26T03:30:09.476Z,0.70
2023-03-26T03:33:19.399Z,0.82
2023-03-26T03:36:23.521Z,0.90
2023-03-26T03:39:27.109Z,0.68
2023-03-26T03:42:30.268Z,0.73
2023-03-26T03:45:34.274Z,0.80
2023-03-26T03:48:40.880Z,0.55
2023-03-26T03:51:44.372Z,0.50
2023-03-26T03:54:47.399Z,1.02
2023-03-26T03:57:52.753Z,1.30
2023-03-26T04:01:03.198Z,2.53
2023-03-26T04:04:08.254Z,0.80
2023-03-26T04:07:13.744Z,0.80
2023-03-26T04:10:17.880Z,0.60
2023-03-26T04:13:23.618Z,1.90
2023-03-26T04:16:27.706Z,0.77
2023-03-26T04:19:31.218Z,5.28
2023-03-26T04:22:34.720Z,5.82
2023-03-26T04:25:39.597Z,5.95
2023-03-26T04:28:49.179Z,36.90
2023-03-26T04:31:58.878Z,40.58
2023-03-26T04:35:07.319Z,41.58
2023-03-26T04:38:11.474Z,26.15
2023-03-26T04:41:16.045Z,18.30
2023-03-26T04:44:22.599Z,8.00
2023-03-26T04:47:26.208Z,8.80
2023-03-26T04:50:29.093Z,15.57
2023-03-26T04:53:32.325Z,9.15
2023-03-26T04:57:08.939Z,8.23
2023-03-26T05:00:16.752Z,3.33
2023-03-26T05:03:21.281Z,3.22
2023-03-26T05:06:34.496Z,1.80
2023-03-26T05:09:39.762Z,2.08
2023-03-26T05:12:43.896Z,2.97
2023-03-26T05:15:47.898Z,2.80
2023-03-26T05:18:51.881Z,3.37
2023-03-26T05:21:55.141Z,4.20
2023-03-26T05:24:58.490Z,5.68
2023-03-26T05:28:02.212Z,5.45
2023-03-26T05:31:07.281Z,4.40
2023-03-26T05:34:11.182Z,3.80
2023-03-26T05:37:14.460Z,2.05
2023-03-26T05:40:18.259Z,2.83
2023-03-26T05:43:21.801Z,3.30
2023-03-26T05:46:25.042Z,1.47
2023-03-26T05:49:28.301Z,0.95
2023-03-26T05:52:31.118Z,0.90
2023-03-26T05:55:46.023Z,0.82
2023-03-26T05:58:59.901Z,0.90
2023-03-26T06:02:03.742Z,0.87
2023-03-26T06:05:08.272Z,0.93
2023-03-26T06:08:11.688Z,0.50
2023-03-26T06:11:16.168Z,0.47
2023-03-26T06:14:19.135Z,0.80
2023-03-26T06:17:24.648Z,0.87
2023-03-26T06:20:28.986Z,0.80
2023-03-26T06:23:32.902Z,0.75
2023-03-26T06:26:36.648Z,1.17
2023-03-26T06:29:40.846Z,0.80
2023-03-26T06:32:45.643Z,1.20
2023-03-26T06:35:49.139Z,1.05
2023-03-26T06:38:52.293Z,1.20
2023-03-26T06:41:55.768Z,1.05
2023-03-26T06:44:58.979Z,0.40
2023-03-26T06:48:05.630Z,0.90
2023-03-26T06:51:11.341Z,0.50
2023-03-26T06:54:18.318Z,0.85
2023-03-26T06:57:21.749Z,0.80
2023-03-26T07:00:27.866Z,0.65
2023-03-26T07:03:37.534Z,1.10
2023-03-26T07:06:49.978Z,1.30
2023-03-26T07:10:02.392Z,0.90
2023-03-26T07:13:09.434Z,1.15
2023-03-26T07:16:14.286Z,1.12
2023-03-26T07:19:18.424Z,1.20
2023-03-26T07:22:24.149Z,0.90
2023-03-26T07:25:30.296Z,1.95
2023-03-26T07:28:42.180Z,0.80
2023-03-26T07:32:39.876Z,0.93
2023-03-26T07:35:59.767Z,1.07
2023-03-26T07:39:23.074Z,0.73
2023-03-26T07:42:45.139Z,0.68
2023-03-26T07:45:50.000Z,0.70
2023-03-26T07:48:55.273Z,0.50
2023-03-26T07:51:58.999Z,0.80
2023-03-26T07:55:03.703Z,0.40
2023-03-26T07:58:35.571Z,1.10
2023-03-26T08:01:56.369Z,0.52
2023-03-26T08:05:20.000Z,1.10
2023-03-26T08:08:27.368Z,1.00
2023-03-26T08:11:47.676Z,0.52
2023-03-26T08:15:09.066Z,1.00
2023-03-26T08:18:22.150Z,1.20
2023-03-26T08:21:34.233Z,1.30
2023-03-26T08:24:47.857Z,1.37
2023-03-26T08:28:04.480Z,0.90
2023-03-26T08:31:11.465Z,1.40
2023-03-26T08:34:14.859Z,1.20
2023-03-26T08:37:18.192Z,0.90
2023-03-26T08:40:54.081Z,1.67
2023-03-26T08:44:28.012Z,1.33
2023-03-26T08:47:30.955Z,1.00
2023-03-26T08:51:01.764Z,1.20
2023-03-26T08:54:37.440Z,1.55
2023-03-26T08:57:43.337Z,0.80
2023-03-26T09:01:19.901Z,1.37
2023-03-26T09:04:29.208Z,1.20
2023-03-26T09:07:53.619Z,0.77
2023-03-26T09:11:13.046Z,1.00
2023-03-26T09:14:36.869Z,1.03
2023-03-26T09:18:01.550Z,1.27
2023-03-26T09:21:22.637Z,1.17
2023-03-26T09:24:38.212Z,1.05
2023-03-26T09:27:56.905Z,1.40
2023-03-26T09:31:32.729Z,1.60
2023-03-26T09:34:57.659Z,0.90
2023-03-26T09:38:11.508Z,1.20
2023-03-26T09:41:16.237Z,1.25
2023-03-26T09:44:43.921Z,1.42
2023-03-26T09:47:58.668Z,1.30
2023-03-26T09:51:31.002Z,1.17
2023-03-26T09:54:37.089Z,1.30
2023-03-26T09:58:18.018Z,1.23
2023-03-26T10:01:37.864Z,1.30
2023-03-26T10:05:15.079Z,1.00
2023-03-26T10:08:59.525Z,1.42
2023-03-26T10:12:24.064Z,1.20
2023-03-26T10:15:42.276Z,0.85
2023-03-26T10:19:04.680Z,1.10
2023-03-26T10:22:10.877Z,2.67
2023-03-26T10:25:16.928Z,0.82
2023-03-26T10:28:34.333Z,0.90
2023-03-26T10:32:06.838Z,0.60
2023-03-26T10:35:41.204Z,0.68
2023-03-26T10:39:02.191Z,0.60
2023-03-26T10:42:11.243Z,0.57
2023-03-26T10:45:27.076Z,0.90
2023-03-26T10:48:35.733Z,0.90
2023-03-26T10:51:48.908Z,0.75
2023-03-26T10:55:16.645Z,0.43
2023-03-26T10:58:29.425Z,0.77
2023-03-26T11:02:29.461Z,0.70
2023-03-26T11:05:52.421Z,1.00
2023-03-26T11:09:12.548Z,0.60
2023-03-26T11:12:29.627Z,0.70
2023-03-26T11:15:52.711Z,0.57
2023-03-26T11:19:05.471Z,0.60
2023-03-26T11:22:20.616Z,0.65
2023-03-26T11:25:50.153Z,1.00
2023-03-26T11:29:31.638Z,0.60
2023-03-26T11:32:47.422Z,0.60
2023-03-26T11:35:53.274Z,0.80
2023-03-26T11:39:00.364Z,0.80
2023-03-26T11:42:16.059Z,0.55
2023-03-26T11:45:22.785Z,0.53
2023-03-26T11:48:36.322Z,0.70
2023-03-26T11:51:42.577Z,0.70
2023-03-26T11:54:48.728Z,0.70
2023-03-26T11:57:57.796Z,0.40
2023-03-26T12:01:05.830Z,0.73
2023-03-26T12:04:15.092Z,0.70
2023-03-26T12:07:25.068Z,0.60
2023-03-26T12:10:41.870Z,0.57
2023-03-26T12:13:58.399Z,0.90
2023-03-26T12:17:06.305Z,0.47
2023-03-26T12:20:32.582Z,0.50
2023-03-26T12:23:57.441Z,0.90
2023-03-26T12:27:28.692Z,0.45
2023-03-26T12:30:37.472Z,0.50
2023-03-26T12:33:40.738Z,1.03
2023-03-26T12:36:53.421Z,1.27
2023-03-26T12:40:28.103Z,0.90
2023-03-26T12:44:53.115Z,1.25
2023-03-26T12:48:00.459Z,0.57
2023-03-26T12:51:40.379Z,0.50
2023-03-26T12:54:49.631Z,0.60
2023-03-26T12:58:24.639Z,0.52
2023-03-26T13:01:46.286Z,0.60
2023-03-26T13:05:22.959Z,0.80
2023-03-26T13:08:53.987Z,0.60
2023-03-26T13:12:26.623Z,0.70
2023-03-26T13:15:45.844Z,0.60
2023-03-26T13:19:15.904Z,0.60
2023-03-26T13:22:44.415Z,0.52
2023-03-26T13:25:53.289Z,0.60
2023-03-26T13:29:18.337Z,1.08
2023-03-26T13:32:47.886Z,0.70
2023-03-26T13:36:24.546Z,0.60
2023-03-26T13:39:58.621Z,0.68
2023-03-26T13:43:14.155Z,0.60
2023-03-26T13:46:46.608Z,0.47
2023-03-26T13:50:02.147Z,0.55
2023-03-26T13:53:17.103Z,0.60
2023-03-26T13:56:30.069Z,0.50
2023-03-26T13:59:40.155Z,0.90
2023-03-26T14:02:48.797Z,0.60
2023-03-26T14:05:56.143Z,1.20
2023-03-26T14:09:07.280Z,0.60
2023-03-26T14:12:34.855Z,1.20
2023-03-26T14:15:51.043Z,0.77
2023-03-26T14:19:32.677Z,0.75
2023-03-26T14:22:41.648Z,1.00
2023-03-26T14:26:16.463Z,0.80
2023-03-26T14:29:25.876Z,1.10
2023-03-26T14:32:46.391Z,0.60
2023-03-26T14:36:31.793Z,0.70
2023-03-26T14:39:55.604Z,0.77
2023-03-26T14:43:36.120Z,0.60
2023-03-26T14:47:04.600Z,1.02
2023-03-26T14:50:31.779Z,0.60
2023-03-26T14:53:40.319Z,0.88
2023-03-26T14:57:19.846Z,0.70
2023-03-26T15:00:53.007Z,0.62
2023-03-26T15:04:32.031Z,0.90
2023-03-26T15:07:46.994Z,0.70
2023-03-26T15:11:07.077Z,0.90
2023-03-26T15:14:38.595Z,0.60
2023-03-26T15:18:00.582Z,0.90
2023-03-26T15:21:06.434Z,1.00
2023-03-26T15:24:53.152Z,1.50
2023-03-26T15:28:33.560Z,0.90
2023-03-26T15:32:04.795Z,1.17
2023-03-26T15:35:57.712Z,0.70
2023-03-26T15:39:18.704Z,1.17
2023-03-26T15:42:52.870Z,0.70
2023-03-26T15:46:12.021Z,1.12
2023-03-26T15:49:30.364Z,0.90
2023-03-26T15:52:54.227Z,2.05
2023-03-26T15:56:13.721Z,1.33
2023-03-26T15:59:37.366Z,1.17
2023-03-26T16:02:54.056Z,0.88
2023-03-26T16:06:20.397Z,0.90
2023-03-26T16:09:39.225Z,1.37
2023-03-26T16:13:20.183Z,1.12
2023-03-26T16:16:45.896Z,1.30
2023-03-26T16:20:20.491Z,1.10
2023-03-26T16:23:47.230Z,1.27
2023-03-26T16:27:16.915Z,1.70
2023-03-26T16:30:32.182Z,1.30
2023-03-26T16:34:00.702Z,1.00
2023-03-26T16:37:09.781Z,1.80
2023-03-26T16:40:32.690Z,1.87
2023-03-26T16:44:17.401Z,1.20
2023-03-26T16:47:40.646Z,1.80
2023-03-26T16:50:49.882Z,1.40
2023-03-26T16:54:10.131Z,1.30
2023-03-26T16:57:37.312Z,1.60
2023-03-26T17:01:10.188Z,3.40
2023-03-26T17:04:24.244Z,2.92
2023-03-26T17:07:43.935Z,1.93
2023-03-26T17:11:18.981Z,1.70
2023-03-26T17:14:49.972Z,1.20
2023-03-26T17:18:20.171Z,1.58
2023-03-26T17:21:53.932Z,1.52
2023-03-26T17:25:04.744Z,1.10
2023-03-26T17:28:32.968Z,1.25
2023-03-26T17:32:12.807Z,1.90
2023-03-26T17:35:17.505Z,1.45
2023-03-26T17:38:28.814Z,1.55
2023-03-26T17:41:55.452Z,1.40
2023-03-26T17:45:22.896Z,2.50
2023-03-26T17:48:30.873Z,2.50
2023-03-26T17:51:38.731Z,2.20
2023-03-26T17:54:52.896Z,1.98
2023-03-26T17:58:00.106Z,1.60
2023-03-26T18:01:23.061Z,1.90
2023-03-26T18:04:40.087Z,1.60
2023-03-26T18:08:05.166Z,1.83
2023-03-26T18:11:29.013Z,2.20
2023-03-26T18:15:13.653Z,2.37
2023-03-26T18:18:32.052Z,2.70
2023-03-26T18:21:38.923Z,2.50
2023-03-26T18:24:46.021Z,2.17
2023-03-26T18:27:51.299Z,2.00
2023-03-26T18:30:55.475Z,1.70
2023-03-26T18:34:14.237Z,1.23
2023-03-26T18:37:39.602Z,1.50
2023-03-26T18:40:46.401Z,2.42
2023-03-26T18:43:51.468Z,2.70
2023-03-26T18:46:56.244Z,2.80
2023-03-26T18:50:01.543Z,3.00
2023-03-26T18:53:09.430Z,2.80
2023-03-26T18:56:28.855Z,3.40
2023-03-26T18:59:41.366Z,3.67
2023-03-26T19:02:50.787Z,3.47
2023-03-26T19:05:57.376Z,3.60
2023-03-26T19:09:23.902Z,3.37
2023-03-26T19:12:36.581Z,3.80
2023-03-26T19:15:43.266Z,3.95
2023-03-26T19:18:50.031Z,3.67
2023-03-26T19:21:57.346Z,3.47
2023-03-26T19:25:05.977Z,3.80
2023-03-26T19:28:40.113Z,4.45
2023-03-26T19:31:44.277Z,2.42
2023-03-26T19:34:49.684Z,3.20
2023-03-26T19:37:57.596Z,3.00
2023-03-26T19:41:02.943Z,4.85
2023-03-26T19:44:28.318Z,3.30
2023-03-26T19:47:52.188Z,3.60
2023-03-26T19:51:06.174Z,4.20
2023-03-26T19:54:17.806Z,3.60
2023-03-26T19:57:24.339Z,2.10
2023-03-26T20:00:29.808Z,0.80
2023-03-26T20:03:45.075Z,0.40
2023-03-26T20:06:50.710Z,0.40
2023-03-26T20:09:56.938Z,0.20
2023-03-26T20:13:01.970Z,0.50
2023-03-26T20:16:34.857Z,0.65
2023-03-26T20:19:39.857Z,0.68
2023-03-26T20:22:47.676Z,0.77
2023-03-26T20:25:55.069Z,0.70
2023-03-26T20:29:00.361Z,1.30
2023-03-26T20:32:06.972Z,0.80
2023-03-26T20:35:16.850Z,0.60
2023-03-26T20:38:24.037Z,1.00
2023-03-26T20:41:34.796Z,1.17
2023-03-26T20:44:37.785Z,1.60
2023-03-26T20:47:42.685Z,1.15
2023-03-26T20:50:50.845Z,3.12
2023-03-26T20:53:55.555Z,1.63
2023-03-26T20:56:58.477Z,1.73
2023-03-26T21:00:01.853Z,1.50
2023-03-26T21:03:05.486Z,1.23
2023-03-26T21:06:15.459Z,1.70
2023-03-26T21:09:24.125Z,1.47
2023-03-26T21:12:33.592Z,1.20
2023-03-26T21:15:37.612Z,1.10
2023-03-26T21:18:42.001Z,1.20
2023-03-26T21:22:10.990Z,1.30
2023-03-26T21:25:23.087Z,1.20
2023-03-26T21:28:39.726Z,0.80
2023-03-26T21:31:48.422Z,1.00
2023-03-26T21:34:58.103Z,0.95
2023-03-26T21:38:05.006Z,1.40
2023-03-26T21:41:08.374Z,1.23
2023-03-26T21:44:11.914Z,1.30
2023-03-26T21:47:15.075Z,2.08
2023-03-26T21:50:21.888Z,1.10
2023-03-26T21:53:25.372Z,1.10
2023-03-26T21:56:46.267Z,1.40
2023-03-26T22:00:15.161Z,1.35
2023-03-26T22:03:36.605Z,1.50
2023-03-26T22:07:01.205Z,1.48
2023-03-26T22:10:05.282Z,1.27
2023-03-26T22:13:08.237Z,1.10
2023-03-26T22:16:11.946Z,1.00
2023-03-26T22:19:15.004Z,1.00
2023-03-26T22:22:18.317Z,1.35
2023-03-26T22:25:23.005Z,1.52
2023-03-26T22:28:27.282Z,1.30
2023-03-26T22:31:30.106Z,1.23
2023-03-26T22:34:35.264Z,1.00
2023-03-26T22:37:38.299Z,1.58
2023-03-26T22:40:41.591Z,1.42
2023-03-26T22:43:46.373Z,1.77
2023-03-26T22:46:51.823Z,1.62
2023-03-26T22:49:54.733Z,1.48
2023-03-26T22:52:57.816Z,1.65
2023-03-26T22:56:01.158Z,1.60
2023-03-26T22:59:04.491Z,1.60
2023-03-26T23:02:09.990Z,1.52
2023-03-26T23:05:14.723Z,1.67
2023-03-26T23:08:18.024Z,1.50
2023-03-26T23:11:22.350Z,1.70
2023-03-26T23:14:25.436Z,1.40
2023-03-26T23:17:29.259Z,1.50
2023-03-26T23:20:38.078Z,1.60
2023-03-26T23:23:41.895Z,1.62
2023-03-26T23:26:50.600Z,1.33
2023-03-26T23:29:55.607Z,1.50
2023-03-26T23:32:58.703Z,1.30
2023-03-26T23:36:07.262Z,1.87
2023-03-26T23:39:11.137Z,1.90
2023-03-26T23:42:29.298Z,1.90
2023-03-26T23:45:33.546Z,1.80
2023-03-26T23:48:37.444Z,2.08
2023-03-26T23:51:40.280Z,2.20
2023-03-26T23:54:43.414Z,1.85
2023-03-26T23:57:46.564Z,1.33
